Time;durP1;ratioP1;P1;durP2;ratioP2;P2;SDS_P1;SDS_P2;PMS_P1;PMS_P2;Temp;Humidity;BMP_temperature;BMP_pressure;BME280_temperature;BME280_humidity;BME280_pressure;Samples;Min_cycle;Max_cycle;Signal;HPM_P1;HPM_P2
2023/07/26 00:01:10;;;;;;;0.40;0.40;;;13.40;99.90;;;;;;5096207;28;20047;-74
2023/07/26 00:03:36;;;;;;;0.40;0.40;;;13.30;99.90;;;;;;5096204;28;20156;-75
2023/07/26 00:06:02;;;;;;;0.30;0.30;;;13.30;99.90;;;;;;5096818;28;20377;-74
2023/07/26 00:08:27;;;;;;;0.60;0.60;;;13.40;99.90;;;;;;5096033;28;20039;-74
2023/07/26 00:10:53;;;;;;;0.40;0.40;;;13.30;99.90;;;;;;5096073;28;20036;-73
2023/07/26 00:13:18;;;;;;;0.40;0.40;;;13.30;99.90;;;;;;5095952;28;20039;-73
2023/07/26 00:15:44;;;;;;;0.43;0.43;;;13.30;99.90;;;;;;5095758;28;20036;-75
2023/07/26 00:18:10;;;;;;;0.35;0.35;;;13.30;99.90;;;;;;5095627;28;20052;-73
2023/07/26 00:20:35;;;;;;;0.30;0.30;;;13.30;99.90;;;;;;5096324;28;20050;-73
2023/07/26 00:23:02;;;;;;;0.38;0.38;;;13.30;99.90;;;;;;5096124;28;20192;-76
2023/07/26 00:25:28;;;;;;;0.40;0.40;;;13.30;99.90;;;;;;5095627;28;20048;-75
2023/07/26 00:27:53;;;;;;;0.30;0.30;;;13.30;99.90;;;;;;5095968;28;20119;-73
2023/07/26 00:30:19;;;;;;;0.40;0.40;;;13.30;99.90;;;;;;5095674;28;20118;-74
2023/07/26 00:32:45;;;;;;;0.40;0.40;;;13.30;99.90;;;;;;5095732;28;20039;-73
2023/07/26 00:35:21;;;;;;;0.40;0.40;;;13.30;99.90;;;;;;5094766;28;20082;-73
2023/07/26 00:37:48;;;;;;;0.50;0.50;;;13.30;99.90;;;;;;5095515;28;20097;-74
2023/07/26 00:40:13;;;;;;;0.38;0.38;;;13.40;99.90;;;;;;5095654;28;20058;-75
2023/07/26 00:42:39;;;;;;;0.40;0.40;;;13.40;99.90;;;;;;5095430;28;20065;-75
2023/07/26 00:45:05;;;;;;;0.40;0.40;;;13.40;99.90;;;;;;5095295;28;20051;-74
2023/07/26 00:47:31;;;;;;;0.40;0.40;;;13.30;99.90;;;;;;5095308;28;20498;-72
2023/07/26 00:49:57;;;;;;;0.40;0.40;;;13.30;99.90;;;;;;5095650;28;20028;-72
2023/07/26 00:52:25;;;;;;;0.35;0.35;;;13.30;99.90;;;;;;5095147;28;20170;-74
2023/07/26 00:54:51;;;;;;;0.40;0.40;;;13.30;99.90;;;;;;5095068;28;20475;-74
2023/07/26 00:57:17;;;;;;;0.60;0.60;;;13.30;99.90;;;;;;5094945;28;20040;-74
2023/07/26 00:59:43;;;;;;;0.40;0.40;;;13.30;99.90;;;;;;5094913;28;20348;-75
2023/07/26 01:02:08;;;;;;;0.40;0.40;;;13.40;99.90;;;;;;5095125;28;20112;-74
2023/07/26 01:04:34;;;;;;;0.40;0.40;;;13.40;99.90;;;;;;5095319;28;20044;-75
2023/07/26 01:07:16;;;;;;;0.50;0.50;;;13.40;99.90;;;;;;5095421;28;20028;-72
2023/07/26 01:10:16;;;;;;;0.40;0.40;;;13.40;99.90;;;;;;5095046;28;20047;-75
2023/07/26 01:13:08;;;;;;;0.40;0.40;;;13.40;99.90;;;;;;5083644;28;20048;-76
2023/07/26 01:15:37;;;;;;;0.30;0.30;;;13.40;99.90;;;;;;5063239;28;20048;-74
2023/07/26 01:18:08;;;;;;;0.57;0.57;;;13.30;99.90;;;;;;5094625;28;20052;-74
2023/07/26 01:20:34;;;;;;;0.47;0.47;;;13.30;99.90;;;;;;5094033;28;20144;-74
2023/07/26 01:22:59;;;;;;;0.30;0.30;;;13.40;99.90;;;;;;5094710;28;20086;-72
2023/07/26 01:25:25;;;;;;;0.50;0.50;;;13.40;99.90;;;;;;5094617;28;20531;-73
2023/07/26 01:27:50;;;;;;;0.40;0.40;;;13.30;99.90;;;;;;5094463;28;20119;-76
2023/07/26 01:30:16;;;;;;;0.40;0.40;;;13.40;99.90;;;;;;5094484;28;20039;-73
2023/07/26 01:32:45;;;;;;;0.40;0.40;;;13.40;99.90;;;;;;5094503;28;20043;-74
2023/07/26 01:35:11;;;;;;;0.40;0.40;;;13.40;99.90;;;;;;5094338;28;20043;-75
2023/07/26 01:37:37;;;;;;;0.40;0.40;;;13.40;99.90;;;;;;5094829;28;20051;-73
2023/07/26 01:40:05;;;;;;;0.40;0.40;;;13.40;99.90;;;;;;5094448;28;20047;-74
2023/07/26 01:42:31;;;;;;;0.40;0.40;;;13.40;99.90;;;;;;5094536;28;20039;-75
2023/07/26 01:45:02;;;;;;;0.40;0.40;;;13.40;99.90;;;;;;5094294;28;20048;-74
2023/07/26 01:47:28;;;;;;;0.40;0.40;;;13.40;99.90;;;;;;5094433;28;20055;-74
2023/07/26 01:49:53;;;;;;;0.40;0.40;;;13.40;99.90;;;;;;5094103;28;20475;-74
2023/07/26 01:52:19;;;;;;;0.40;0.40;;;13.40;99.90;;;;;;5094117;28;20082;-74
2023/07/26 01:54:44;;;;;;;0.40;0.40;;;13.40;99.90;;;;;;5094183;28;20040;-74
2023/07/26 01:57:10;;;;;;;0.40;0.40;;;13.30;99.90;;;;;;5094181;28;20042;-73
2023/07/26 01:59:36;;;;;;;0.40;0.40;;;13.30;99.90;;;;;;5094137;28;20040;-74
2023/07/26 02:02:01;;;;;;;0.40;0.40;;;13.30;99.90;;;;;;5094062;28;20115;-74
2023/07/26 02:04:27;;;;;;;0.40;0.40;;;13.30;99.90;;;;;;5093969;28;20039;-73
2023/07/26 02:06:53;;;;;;;0.40;0.40;;;13.30;99.90;;;;;;5094074;28;20052;-75
2023/07/26 02:09:19;;;;;;;0.40;0.40;;;13.30;99.90;;;;;;5094314;28;20050;-75
2023/07/26 02:11:45;;;;;;;0.40;0.40;;;13.20;99.90;;;;;;5093895;28;20118;-74
2023/07/26 02:14:10;;;;;;;0.30;0.30;;;13.20;99.90;;;;;;5093841;28;20079;-74
2023/07/26 02:16:36;;;;;;;0.30;0.30;;;13.20;99.90;;;;;;5093813;28;20432;-74
2023/07/26 02:19:01;;;;;;;0.50;0.50;;;13.20;99.90;;;;;;5093857;28;20048;-72
2023/07/26 02:21:27;;;;;;;0.50;0.50;;;13.10;99.90;;;;;;5093550;28;20038;-75
2023/07/26 02:23:52;;;;;;;0.40;0.40;;;13.10;99.90;;;;;;5093812;28;20044;-75
2023/07/26 02:26:18;;;;;;;0.40;0.40;;;13.10;99.90;;;;;;5093874;28;20040;-72
2023/07/26 02:28:44;;;;;;;0.50;0.50;;;13.10;99.90;;;;;;5093809;28;20043;-75
2023/07/26 02:31:09;;;;;;;0.37;0.37;;;13.00;99.90;;;;;;5095289;28;20473;-75
2023/07/26 02:33:35;;;;;;;0.50;0.50;;;13.00;99.90;;;;;;5097939;28;20127;-74
2023/07/26 02:36:00;;;;;;;0.40;0.40;;;12.90;99.90;;;;;;5097583;28;20124;-72
2023/07/26 02:38:26;;;;;;;0.47;0.47;;;12.90;99.90;;;;;;5098166;28;20437;-72
2023/07/26 02:40:52;;;;;;;0.40;0.40;;;12.90;99.90;;;;;;5097997;28;20035;-74
2023/07/26 02:43:17;;;;;;;0.40;0.40;;;12.90;99.90;;;;;;5097739;28;20059;-72
2023/07/26 02:45:43;;;;;;;0.40;0.40;;;12.80;99.90;;;;;;5097667;28;20500;-72
2023/07/26 02:48:08;;;;;;;0.40;0.40;;;12.80;99.90;;;;;;5097769;28;20114;-72
2023/07/26 02:50:34;;;;;;;0.40;0.40;;;12.80;99.90;;;;;;5097545;28;20111;-75
2023/07/26 02:53:00;;;;;;;0.40;0.40;;;12.70;99.90;;;;;;5097493;28;20038;-72
2023/07/26 02:55:25;;;;;;;0.40;0.40;;;12.70;99.90;;;;;;5097519;28;20047;-75
2023/07/26 02:57:51;;;;;;;0.40;0.40;;;12.60;99.90;;;;;;5097497;28;20040;-72
2023/07/26 03:00:17;;;;;;;0.40;0.40;;;12.60;99.90;;;;;;5097394;28;20486;-74
2023/07/26 03:02:42;;;;;;;0.43;0.40;;;12.50;99.90;;;;;;5097417;28;20044;-75
2023/07/26 03:05:08;;;;;;;0.40;0.40;;;12.50;99.90;;;;;;5097238;28;20506;-74
2023/07/26 03:07:34;;;;;;;0.40;0.40;;;12.40;99.90;;;;;;5097258;28;20079;-76
2023/07/26 03:10:00;;;;;;;0.52;0.52;;;12.40;99.90;;;;;;5097240;28;20040;-73
2023/07/26 03:12:26;;;;;;;0.50;0.50;;;12.40;99.90;;;;;;5097133;28;20094;-73
2023/07/26 03:14:51;;;;;;;0.40;0.40;;;12.30;99.90;;;;;;5096893;28;20119;-72
2023/07/26 03:17:17;;;;;;;0.40;0.40;;;12.30;99.90;;;;;;5097139;28;20096;-72
2023/07/26 03:19:43;;;;;;;0.40;0.40;;;12.70;99.90;;;;;;5096599;28;20500;-72
2023/07/26 03:22:09;;;;;;;0.40;0.40;;;12.80;99.90;;;;;;5096766;28;20050;-72
2023/07/26 03:24:35;;;;;;;0.50;0.50;;;12.20;99.90;;;;;;5096945;28;20036;-75
2023/07/26 03:27:00;;;;;;;0.50;0.50;;;12.20;99.90;;;;;;5096927;28;20036;-74
2023/07/26 03:29:26;;;;;;;0.50;0.50;;;12.30;99.90;;;;;;5097210;28;20036;-74
2023/07/26 03:31:51;;;;;;;0.50;0.50;;;12.10;99.90;;;;;;5096869;28;20075;-73
2023/07/26 03:34:17;;;;;;;0.43;0.43;;;12.10;99.90;;;;;;5096440;28;20528;-71
2023/07/26 03:36:43;;;;;;;0.40;0.40;;;12.10;99.90;;;;;;5097203;28;20086;-72
2023/07/26 03:39:08;;;;;;;0.40;0.40;;;12.00;99.90;;;;;;5096685;28;20032;-74
2023/07/26 03:41:34;;;;;;;0.40;0.40;;;12.00;99.90;;;;;;5096699;28;20063;-74
2023/07/26 03:43:59;;;;;;;0.40;0.40;;;12.00;99.90;;;;;;5096028;28;20112;-71
2023/07/26 03:46:25;;;;;;;0.60;0.60;;;12.00;99.90;;;;;;5096493;28;20066;-74
2023/07/26 03:48:51;;;;;;;0.40;0.40;;;12.00;99.90;;;;;;5096537;28;20047;-73
2023/07/26 03:51:16;;;;;;;0.40;0.40;;;12.00;99.90;;;;;;5096096;28;20100;-74
2023/07/26 03:53:42;;;;;;;0.40;0.40;;;11.90;99.90;;;;;;5096409;28;20048;-76
2023/07/26 03:56:07;;;;;;;0.40;0.40;;;11.90;99.90;;;;;;5096362;28;20090;-75
2023/07/26 03:58:33;;;;;;;0.40;0.40;;;11.90;99.90;;;;;;5096567;28;20051;-75
2023/07/26 04:00:59;;;;;;;0.40;0.40;;;11.90;99.90;;;;;;5096268;28;20040;-73
2023/07/26 04:03:24;;;;;;;0.40;0.40;;;11.90;99.90;;;;;;5096248;28;20051;-74
2023/07/26 04:05:50;;;;;;;0.50;0.50;;;11.90;99.90;;;;;;5096058;28;20484;-75
2023/07/26 04:08:15;;;;;;;0.40;0.40;;;11.90;99.90;;;;;;5096119;28;20040;-73
2023/07/26 04:10:41;;;;;;;0.40;0.40;;;12.00;99.90;;;;;;5095964;28;20032;-71
2023/07/26 04:13:06;;;;;;;0.50;0.50;;;12.00;99.90;;;;;;5096021;28;20032;-73
2023/07/26 04:15:32;;;;;;;0.43;0.43;;;12.00;99.90;;;;;;5095798;28;20046;-72
2023/07/26 04:17:58;;;;;;;0.40;0.40;;;12.30;99.90;;;;;;5095863;28;20143;-75
2023/07/26 04:20:23;;;;;;;0.50;0.50;;;12.10;99.90;;;;;;5096189;28;20357;-74
2023/07/26 04:22:49;;;;;;;0.50;0.50;;;12.10;99.90;;;;;;5095789;28;20079;-75
2023/07/26 04:25:15;;;;;;;0.40;0.40;;;12.20;99.90;;;;;;5095803;28;20042;-73
2023/07/26 04:27:41;;;;;;;0.40;0.40;;;12.20;99.90;;;;;;5095684;28;20064;-75
2023/07/26 04:30:07;;;;;;;0.40;0.40;;;12.20;99.90;;;;;;5095494;28;20079;-73
2023/07/26 04:32:32;;;;;;;0.57;0.57;;;12.30;99.90;;;;;;5095738;28;20127;-74
2023/07/26 04:34:58;;;;;;;0.40;0.40;;;12.40;99.90;;;;;;5095774;28;20469;-73
2023/07/26 04:37:24;;;;;;;0.40;0.40;;;12.40;99.90;;;;;;5095548;28;20036;-76
2023/07/26 04:39:49;;;;;;;0.40;0.40;;;12.40;99.90;;;;;;5095552;28;20032;-74
2023/07/26 04:42:15;;;;;;;0.50;0.50;;;12.50;99.90;;;;;;5095487;28;20036;-72
2023/07/26 04:44:41;;;;;;;0.40;0.40;;;12.50;99.90;;;;;;5095461;28;20048;-74
2023/07/26 04:47:06;;;;;;;0.40;0.40;;;12.50;99.90;;;;;;5095302;28;20040;-73
2023/07/26 04:49:32;;;;;;;2.00;0.50;;;12.50;99.90;;;;;;5095268;28;20036;-74
2023/07/26 04:51:57;;;;;;;0.50;0.50;;;12.60;99.90;;;;;;5095712;28;20032;-75
2023/07/26 04:54:23;;;;;;;0.40;0.40;;;12.70;99.90;;;;;;5094688;28;20356;-74
2023/07/26 04:56:49;;;;;;;0.40;0.40;;;12.80;99.90;;;;;;5095211;28;20551;-73
2023/07/26 04:59:15;;;;;;;0.40;0.40;;;12.90;99.90;;;;;;5095141;28;20046;-73
2023/07/26 05:01:40;;;;;;;0.40;0.40;;;13.00;99.90;;;;;;5095114;28;20040;-74
2023/07/26 05:04:06;;;;;;;0.30;0.30;;;13.10;99.90;;;;;;5094599;28;20122;-74
2023/07/26 05:06:32;;;;;;;0.40;0.40;;;13.10;99.90;;;;;;5094979;28;20040;-75
2023/07/26 05:08:59;;;;;;;0.40;0.40;;;13.20;99.90;;;;;;5094944;28;20047;-71
2023/07/26 05:11:25;;;;;;;0.40;0.40;;;13.20;99.90;;;;;;5094838;28;20036;-72
2023/07/26 05:13:51;;;;;;;0.50;0.50;;;13.20;99.90;;;;;;5094806;28;20040;-75
2023/07/26 05:16:16;;;;;;;0.73;0.73;;;13.20;99.90;;;;;;5094839;28;20040;-73
2023/07/26 05:18:42;;;;;;;0.40;0.40;;;13.20;99.90;;;;;;5094679;28;20052;-71
2023/07/26 05:21:08;;;;;;;0.65;0.65;;;13.20;99.90;;;;;;5094483;28;20482;-73
2023/07/26 05:23:33;;;;;;;0.50;0.50;;;13.20;99.90;;;;;;5094634;28;20475;-71
2023/07/26 05:25:59;;;;;;;0.40;0.40;;;13.20;99.90;;;;;;5094786;28;20047;-74
2023/07/26 05:28:25;;;;;;;0.40;0.40;;;13.20;99.90;;;;;;5094687;28;20039;-71
2023/07/26 05:30:50;;;;;;;0.55;0.55;;;13.20;99.90;;;;;;5094602;28;20051;-71
2023/07/26 05:33:16;;;;;;;0.60;0.60;;;13.30;99.90;;;;;;5094463;28;20044;-73
2023/07/26 05:35:42;;;;;;;0.40;0.40;;;13.40;99.90;;;;;;5094431;28;20129;-73
2023/07/26 05:38:07;;;;;;;0.40;0.40;;;13.50;99.90;;;;;;5094852;28;20464;-73
2023/07/26 05:40:33;;;;;;;0.40;0.40;;;13.50;99.90;;;;;;5094401;28;20435;-74
2023/07/26 05:42:59;;;;;;;0.57;0.57;;;13.50;99.90;;;;;;5094154;28;20060;-76
2023/07/26 05:45:24;;;;;;;0.50;0.50;;;13.50;99.90;;;;;;5093099;28;20047;-75
2023/07/26 05:47:50;;;;;;;0.60;0.60;;;13.60;99.90;;;;;;5094293;28;20119;-74
2023/07/26 05:50:15;;;;;;;0.40;0.40;;;13.60;99.90;;;;;;5094488;28;20089;-74
2023/07/26 05:52:41;;;;;;;0.40;0.40;;;13.70;99.90;;;;;;5094189;28;20032;-75
2023/07/26 05:55:07;;;;;;;0.75;0.70;;;13.70;99.90;;;;;;5094829;28;20036;-73
2023/07/26 05:57:33;;;;;;;0.40;0.40;;;13.70;99.90;;;;;;5094132;28;20112;-75
2023/07/26 05:59:59;;;;;;;0.50;0.50;;;13.70;99.90;;;;;;5110098;28;20463;-76
2023/07/26 06:02:25;;;;;;;0.40;0.40;;;13.80;99.90;;;;;;5094143;28;20044;-74
2023/07/26 06:04:51;;;;;;;0.50;0.50;;;13.70;99.90;;;;;;5093967;28;20127;-74
2023/07/26 06:07:17;;;;;;;0.40;0.40;;;13.80;99.90;;;;;;5094258;28;20040;-74
2023/07/26 06:09:43;;;;;;;0.40;0.40;;;13.80;99.90;;;;;;5092492;28;20044;-75
2023/07/26 06:12:09;;;;;;;0.60;0.60;;;13.90;99.90;;;;;;5093438;28;20036;-73
2023/07/26 06:14:35;;;;;;;0.40;0.40;;;13.90;99.90;;;;;;5093644;28;20048;-74
2023/07/26 06:17:01;;;;;;;0.60;0.60;;;14.00;99.90;;;;;;5093445;28;20278;-74
2023/07/26 06:19:26;;;;;;;0.40;0.40;;;14.10;99.90;;;;;;5093548;28;20056;-75
2023/07/26 06:21:55;;;;;;;0.40;0.40;;;14.20;99.90;;;;;;5109748;28;20046;-74
2023/07/26 06:24:22;;;;;;;0.70;0.70;;;14.30;99.90;;;;;;5093596;28;20094;-76
2023/07/26 06:26:48;;;;;;;0.50;0.50;;;14.40;99.90;;;;;;5093715;28;20498;-75
2023/07/26 06:29:14;;;;;;;0.40;0.40;;;14.60;99.90;;;;;;5093377;28;20048;-75
2023/07/26 06:31:39;;;;;;;0.40;0.40;;;14.70;99.90;;;;;;5093529;28;20042;-75
2023/07/26 06:34:05;;;;;;;0.40;0.40;;;14.70;99.90;;;;;;5093545;28;20036;-75
2023/07/26 06:36:31;;;;;;;0.60;0.60;;;14.70;99.90;;;;;;5093362;28;20047;-75
2023/07/26 06:38:56;;;;;;;0.35;0.35;;;14.70;99.90;;;;;;5093599;28;20043;-75
2023/07/26 06:41:22;;;;;;;0.50;0.50;;;14.70;99.90;;;;;;5093510;28;20036;-75
2023/07/26 06:43:48;;;;;;;0.30;0.30;;;14.70;99.90;;;;;;5093345;28;20545;-75
2023/07/26 06:46:13;;;;;;;0.50;0.50;;;14.70;99.90;;;;;;5093522;28;20387;-75
2023/07/26 06:48:39;;;;;;;0.68;0.68;;;14.70;99.90;;;;;;5093474;28;20063;-75
2023/07/26 06:51:04;;;;;;;0.30;0.30;;;14.70;99.90;;;;;;5093625;28;20102;-75
2023/07/26 06:53:30;;;;;;;0.70;0.70;;;14.70;99.90;;;;;;5093459;28;20047;-75
2023/07/26 06:55:59;;;;;;;0.40;0.40;;;14.70;99.90;;;;;;5093597;28;20055;-75
2023/07/26 06:58:25;;;;;;;0.98;0.70;;;14.70;99.90;;;;;;5093150;28;20104;-74
2023/07/26 07:00:52;;;;;;;0.40;0.40;;;14.80;99.90;;;;;;5093117;28;20036;-74
2023/07/26 07:03:18;;;;;;;0.30;0.30;;;14.80;99.90;;;;;;5093170;28;20036;-75
2023/07/26 07:05:43;;;;;;;0.60;0.57;;;14.80;99.90;;;;;;5093232;28;20036;-75
2023/07/26 07:08:09;;;;;;;0.60;0.60;;;14.80;99.90;;;;;;5093101;28;20547;-76
2023/07/26 07:10:35;;;;;;;0.50;0.50;;;14.80;99.90;;;;;;5093319;28;20036;-77
2023/07/26 07:13:00;;;;;;;0.43;0.43;;;14.80;99.90;;;;;;5093002;28;20368;-76
2023/07/26 07:15:26;;;;;;;0.50;0.50;;;14.90;99.90;;;;;;5093168;28;20043;-76
2023/07/26 07:17:52;;;;;;;0.60;0.40;;;15.00;99.90;;;;;;5093907;28;20101;-76
2023/07/26 07:20:17;;;;;;;0.40;0.40;;;15.00;99.90;;;;;;5096830;28;20131;-75
2023/07/26 07:22:43;;;;;;;0.40;0.40;;;15.10;99.90;;;;;;5096901;28;20457;-76
2023/07/26 07:25:09;;;;;;;0.40;0.40;;;15.10;99.90;;;;;;5097122;28;20032;-76
2023/07/26 07:27:35;;;;;;;0.50;0.50;;;15.10;99.90;;;;;;5096730;28;20379;-73
2023/07/26 07:30:01;;;;;;;0.63;0.63;;;15.20;99.90;;;;;;5096800;28;20132;-75
2023/07/26 07:32:26;;;;;;;0.77;0.40;;;15.30;99.90;;;;;;5096722;28;20055;-76
2023/07/26 07:34:52;;;;;;;0.40;0.40;;;15.40;99.90;;;;;;5096481;28;20032;-74
2023/07/26 07:37:18;;;;;;;0.43;0.43;;;15.50;99.90;;;;;;5096616;28;20535;-73
2023/07/26 07:39:43;;;;;;;0.55;0.50;;;15.50;99.90;;;;;;5096439;28;20126;-74
2023/07/26 07:42:09;;;;;;;0.40;0.40;;;15.40;99.90;;;;;;5096393;28;20031;-76
2023/07/26 07:44:35;;;;;;;0.55;0.55;;;15.30;99.90;;;;;;5096445;28;20035;-75
2023/07/26 07:47:00;;;;;;;0.65;0.55;;;15.30;99.90;;;;;;5095303;28;20036;-76
2023/07/26 07:49:26;;;;;;;0.30;0.30;;;15.30;99.90;;;;;;5083483;28;20032;-76
2023/07/26 07:51:52;;;;;;;0.77;0.77;;;15.30;99.90;;;;;;5083051;28;20044;-78
2023/07/26 07:54:18;;;;;;;0.35;0.35;;;15.30;99.90;;;;;;5084770;28;20134;-76
2023/07/26 07:56:45;;;;;;;0.50;0.50;;;15.20;99.90;;;;;;5091692;28;20083;-76
2023/07/26 07:59:11;;;;;;;0.30;0.30;;;15.30;99.90;;;;;;5075712;28;20072;-77
2023/07/26 08:01:37;;;;;;;0.30;0.30;;;15.20;99.90;;;;;;5075885;28;20141;-74
2023/07/26 08:04:03;;;;;;;0.50;0.50;;;15.10;99.90;;;;;;5090779;28;20036;-76
2023/07/26 08:06:29;;;;;;;0.43;0.40;;;15.10;99.90;;;;;;5095729;28;20281;-75
2023/07/26 08:08:55;;;;;;;0.55;0.50;;;15.00;99.90;;;;;;5091416;28;20051;-77
2023/07/26 08:11:22;;;;;;;0.53;0.50;;;14.90;99.90;;;;;;5095667;28;20036;-77
2023/07/26 08:13:48;;;;;;;0.45;0.45;;;14.80;99.90;;;;;;5095779;28;20105;-75
2023/07/26 08:16:13;;;;;;;0.40;0.40;;;14.70;99.90;;;;;;5096292;28;20064;-77
2023/07/26 08:18:39;;;;;;;0.40;0.40;;;14.60;99.90;;;;;;5094213;28;20048;-77
2023/07/26 08:21:05;;;;;;;0.50;0.50;;;14.60;99.90;;;;;;5095837;28;20048;-76
2023/07/26 08:23:31;;;;;;;0.63;0.60;;;14.50;99.90;;;;;;5095754;28;20051;-78
2023/07/26 08:26:03;;;;;;;0.50;0.50;;;14.50;99.90;;;;;;5095826;28;20118;-76
2023/07/26 08:28:29;;;;;;;0.30;0.30;;;14.50;99.90;;;;;;5083030;28;20314;-74
2023/07/26 08:30:54;;;;;;;0.50;0.50;;;14.50;99.90;;;;;;5075093;28;20071;-75
2023/07/26 08:33:20;;;;;;;0.40;0.40;;;14.50;99.90;;;;;;5080897;28;20058;-80
2023/07/26 08:35:46;;;;;;;0.40;0.40;;;14.60;99.90;;;;;;5085192;28;20040;-77
2023/07/26 08:38:11;;;;;;;0.40;0.40;;;14.70;99.90;;;;;;5083587;28;20361;-72
2023/07/26 08:40:46;;;;;;;0.50;0.50;;;14.80;99.90;;;;;;5091830;28;20032;-76
2023/07/26 08:43:13;;;;;;;0.40;0.40;;;14.90;99.90;;;;;;5094110;28;20071;-75
2023/07/26 08:45:41;;;;;;;0.50;0.50;;;15.10;99.90;;;;;;5094880;28;20044;-74
2023/07/26 08:48:08;;;;;;;0.40;0.40;;;15.30;99.90;;;;;;5095179;28;20036;-76
2023/07/26 08:50:35;;;;;;;0.60;0.60;;;15.50;99.90;;;;;;5095065;28;20480;-75
2023/07/26 08:53:05;;;;;;;0.30;0.30;;;15.80;99.90;;;;;;5094891;28;20048;-75
2023/07/26 08:55:31;;;;;;;0.30;0.30;;;16.10;99.90;;;;;;5095050;28;20127;-74
2023/07/26 08:57:58;;;;;;;0.50;0.50;;;16.30;99.90;;;;;;5095013;28;20040;-72
2023/07/26 09:00:26;;;;;;;0.52;0.52;;;16.40;99.90;;;;;;5094478;28;20676;-72
2023/07/26 09:02:55;;;;;;;0.40;0.40;;;16.40;99.90;;;;;;5094636;28;20028;-73
2023/07/26 09:05:20;;;;;;;0.45;0.45;;;16.40;99.90;;;;;;5092550;28;20044;-76
2023/07/26 09:07:46;;;;;;;0.40;0.40;;;16.30;99.90;;;;;;5094527;28;20046;-77
2023/07/26 09:10:12;;;;;;;0.50;0.50;;;16.30;99.90;;;;;;5094880;28;20126;-74
2023/07/26 09:12:37;;;;;;;0.67;0.50;;;16.30;99.90;;;;;;5094147;28;20383;-76
2023/07/26 09:15:07;;;;;;;0.30;0.30;;;16.40;99.90;;;;;;5085376;28;20041;-78
2023/07/26 09:17:41;;;;;;;0.30;0.30;;;16.40;99.90;;;;;;5086907;28;20032;-74
2023/07/26 09:20:22;;;;;;;0.30;0.30;;;16.60;99.90;;;;;;5094829;28;20042;-72
2023/07/26 09:22:56;;;;;;;0.30;0.30;;;16.80;99.90;;;;;;5081367;28;20055;-75
2023/07/26 09:25:43;;;;;;;1.52;0.60;;;17.00;99.90;;;;;;5073999;28;20393;-75
2023/07/26 09:28:10;;;;;;;0.30;0.30;;;17.20;99.90;;;;;;5074251;28;20032;-74
2023/07/26 09:30:37;;;;;;;0.30;0.30;;;17.40;99.90;;;;;;5074057;28;20077;-75
2023/07/26 09:33:05;;;;;;;0.43;0.43;;;17.60;99.90;;;;;;5074469;28;20033;-75
2023/07/26 09:35:34;;;;;;;0.50;0.50;;;17.70;99.90;;;;;;5086353;28;20040;-75
2023/07/26 09:38:15;;;;;;;0.30;0.30;;;17.80;99.90;;;;;;5093731;28;20036;-74
2023/07/26 09:40:41;;;;;;;0.30;0.30;;;17.90;99.90;;;;;;5093366;28;20138;-76
2023/07/26 09:43:06;;;;;;;0.97;0.77;;;17.90;99.90;;;;;;5092669;28;20503;-78
2023/07/26 09:45:33;;;;;;;0.50;0.50;;;17.90;99.90;;;;;;5089748;28;20111;-75
2023/07/26 09:48:14;;;;;;;0.40;0.40;;;17.90;99.90;;;;;;5089860;28;20040;-75
2023/07/26 09:50:41;;;;;;;0.40;0.40;;;18.00;99.90;;;;;;5081753;28;20040;-76
2023/07/26 09:53:07;;;;;;;0.22;0.22;;;18.10;99.90;;;;;;5073594;28;20032;-79
2023/07/26 09:55:33;;;;;;;0.63;0.60;;;18.00;99.90;;;;;;5074246;28;20496;-75
2023/07/26 09:58:00;;;;;;;0.30;0.30;;;18.00;99.90;;;;;;5073659;28;20123;-80
2023/07/26 10:00:28;;;;;;;0.30;0.30;;;18.00;99.90;;;;;;5073558;28;20040;-78
2023/07/26 10:03:04;;;;;;;0.30;0.30;;;17.90;99.90;;;;;;5073928;28;20040;-75
2023/07/26 10:05:44;;;;;;;0.30;0.30;;;17.90;99.90;;;;;;5073575;28;20123;-74
2023/07/26 10:08:11;;;;;;;0.30;0.30;;;18.00;99.90;;;;;;5073649;28;20039;-73
2023/07/26 10:10:37;;;;;;;0.40;0.40;;;18.10;99.90;;;;;;5073497;28;20044;-75
2023/07/26 10:13:05;;;;;;;0.20;0.20;;;18.30;99.90;;;;;;5072368;28;20491;-72
2023/07/26 10:15:30;;;;;;;0.40;0.40;;;18.40;99.90;;;;;;5073915;28;20606;-75
2023/07/26 10:17:57;;;;;;;0.50;0.50;;;18.40;99.90;;;;;;5072839;28;20056;-73
2023/07/26 10:20:23;;;;;;;0.30;0.30;;;18.40;99.90;;;;;;5073493;28;20049;-75
2023/07/26 10:22:50;;;;;;;0.60;0.60;;;18.50;99.90;;;;;;5073519;28;20060;-72
2023/07/26 10:25:16;;;;;;;0.30;0.30;;;18.60;99.90;;;;;;5073596;28;20041;-73
2023/07/26 10:27:45;;;;;;;0.57;0.57;;;18.90;99.90;;;;;;5073362;28;20036;-75
2023/07/26 10:30:11;;;;;;;0.30;0.30;;;19.10;99.90;;;;;;5073433;28;20037;-76
2023/07/26 10:32:48;;;;;;;0.20;0.20;;;19.30;99.90;;;;;;5073494;28;20110;-78
2023/07/26 10:35:32;;;;;;;0.40;0.40;;;19.60;99.90;;;;;;5073172;28;20259;-75
2023/07/26 10:37:59;;;;;;;0.35;0.35;;;19.80;99.90;;;;;;5072367;28;20079;-77
2023/07/26 10:40:38;;;;;;;0.30;0.30;;;20.00;99.90;;;;;;5073418;28;20387;-74
2023/07/26 10:43:19;;;;;;;0.30;0.30;;;20.00;99.90;;;;;;5073240;28;20043;-78
2023/07/26 10:45:47;;;;;;;0.30;0.30;;;19.90;99.90;;;;;;5073158;28;20128;-72
2023/07/26 10:48:38;;;;;;;0.40;0.40;;;19.90;99.90;;;;;;5073045;28;20043;-74
2023/07/26 10:51:21;;;;;;;0.47;0.47;;;20.10;99.90;;;;;;5073220;28;20055;-74
2023/07/26 10:53:46;;;;;;;0.55;0.40;;;20.20;99.90;;;;;;5075611;28;20033;-75
2023/07/26 10:56:19;;;;;;;0.40;0.40;;;20.10;99.90;;;;;;5083841;28;20032;-74
2023/07/26 10:59:03;;;;;;;0.30;0.30;;;19.90;99.90;;;;;;5096731;28;20498;-80
2023/07/26 11:01:47;;;;;;;0.30;0.30;;;19.90;99.90;;;;;;5096019;28;20485;-81
2023/07/26 11:04:20;;;;;;;0.43;0.43;;;20.00;99.90;;;;;;5097060;28;20083;-82
2023/07/26 11:06:55;;;;;;;0.30;0.30;;;20.10;99.90;;;;;;5097840;28;20368;-83
2023/07/26 11:09:31;;;;;;;0.45;0.32;;;19.90;99.90;;;;;;5097499;28;20388;-79
2023/07/26 11:12:02;;;;;;;0.40;0.40;;;19.70;99.90;;;;;;5096065;28;20052;-77
2023/07/26 11:14:33;;;;;;;0.40;0.40;;;19.50;99.90;;;;;;5097041;28;20040;-78
2023/07/26 11:17:11;;;;;;;0.30;0.30;;;19.30;99.90;;;;;;5097015;28;20050;-76
2023/07/26 11:19:48;;;;;;;0.20;0.20;;;19.20;99.90;;;;;;5096964;28;20095;-75
2023/07/26 11:22:14;;;;;;;1.33;0.50;;;19.20;99.90;;;;;;5095397;28;20032;-75
2023/07/26 11:24:39;;;;;;;0.63;0.63;;;19.40;99.90;;;;;;5096587;28;20040;-76
2023/07/26 11:27:06;;;;;;;0.30;0.30;;;19.60;99.90;;;;;;5096724;28;20050;-76
2023/07/26 11:29:33;;;;;;;0.45;0.45;;;19.80;99.90;;;;;;5096474;28;20084;-77
2023/07/26 11:31:58;;;;;;;0.70;0.43;;;20.00;99.90;;;;;;5096044;28;20032;-79
2023/07/26 11:34:24;;;;;;;0.30;0.30;;;20.30;99.90;;;;;;5097686;28;20047;-79
2023/07/26 11:36:50;;;;;;;0.33;0.33;;;20.50;99.90;;;;;;5096632;28;20433;-77
2023/07/26 11:39:25;;;;;;;0.40;0.40;;;20.40;99.90;;;;;;5096242;28;20042;-78
2023/07/26 11:41:53;;;;;;;0.30;0.30;;;20.20;99.90;;;;;;5096842;28;20361;-79
2023/07/26 11:44:22;;;;;;;0.38;0.38;;;19.70;99.90;;;;;;5097136;28;20036;-79
2023/07/26 11:46:48;;;;;;;0.30;0.30;;;19.20;99.90;;;;;;5096295;28;20131;-77
2023/07/26 11:49:21;;;;;;;0.40;0.40;;;18.40;99.90;;;;;;5096285;28;20460;-76
2023/07/26 11:51:51;;;;;;;0.20;0.20;;;18.00;99.90;;;;;;5096367;28;20048;-77
2023/07/26 11:54:17;;;;;;;0.20;0.20;;;17.70;99.90;;;;;;5096255;28;20173;-78
2023/07/26 11:56:44;;;;;;;0.20;0.20;;;17.50;99.90;;;;;;5095827;28;20047;-76
2023/07/26 11:59:10;;;;;;;0.22;0.22;;;17.40;99.90;;;;;;5096152;28;20050;-77
2023/07/26 12:01:37;;;;;;;0.30;0.30;;;17.40;99.90;;;;;;5093459;28;20543;-78
2023/07/26 12:04:14;;;;;;;0.20;0.20;;;17.50;99.90;;;;;;5094638;28;20050;-76
2023/07/26 12:06:41;;;;;;;0.30;0.30;;;17.60;99.90;;;;;;5095498;28;20406;-77
2023/07/26 12:09:11;;;;;;;0.30;0.30;;;17.90;99.90;;;;;;5095924;28;20040;-78
2023/07/26 12:11:51;;;;;;;0.40;0.40;;;18.10;99.90;;;;;;5095692;28;20048;-79
2023/07/26 12:14:17;;;;;;;0.20;0.20;;;18.20;99.90;;;;;;5094939;28;20053;-78
2023/07/26 12:16:52;;;;;;;0.30;0.30;;;18.40;99.90;;;;;;5095621;28;20032;-77
2023/07/26 12:19:21;;;;;;;0.30;0.30;;;18.60;99.90;;;;;;5095670;28;20056;-77
2023/07/26 12:21:48;;;;;;;0.80;0.80;;;18.80;99.90;;;;;;5095759;28;20047;-77
2023/07/26 12:24:14;;;;;;;;;;;19.00;99.90;;;;;;5095800;28;20040;-78
2023/07/26 12:26:45;;;;;;;0.70;0.40;;;19.10;99.90;;;;;;5095563;28;19915;-78
2023/07/26 12:29:11;;;;;;;0.30;0.30;;;19.20;99.90;;;;;;5095250;28;20403;-78
2023/07/26 12:31:38;;;;;;;0.30;0.30;;;19.30;99.90;;;;;;5093919;28;20044;-78
2023/07/26 12:34:07;;;;;;;;;;;19.30;99.90;;;;;;5095919;28;20127;-77
2023/07/26 12:36:41;;;;;;;0.30;0.30;;;19.30;99.90;;;;;;5093820;28;19916;-78
2023/07/26 12:39:12;;;;;;;0.40;0.40;;;19.40;99.90;;;;;;5094623;28;20468;-78
2023/07/26 12:41:39;;;;;;;0.25;0.25;;;19.50;99.90;;;;;;5095138;28;20495;-80
2023/07/26 12:44:07;;;;;;;;;;;19.40;99.90;;;;;;5096112;28;20036;-79
2023/07/26 12:46:33;;;;;;;0.30;0.30;;;19.50;99.90;;;;;;5095654;28;19916;-80
2023/07/26 12:48:59;;;;;;;0.52;0.52;;;19.70;99.90;;;;;;5095357;28;20059;-79